Dutchtown, Iowa
Current Conditions -  °F | °C
As of 5:35 AM on Friday 19 Dec 2014 (Local Time) from KMXO Reporting Station
Haze Haze  
Wind Chill: 21°   Ceiling: 7000
Heat Index: 21°   Visibility: 6mi
Dew Point: 21°   Wind: 0mph
Humidity: 100%   Direction: NA
Pressure: 30.28"   Gusts: NA
Location:  42.4689°N, 91.4531°W
Report Text: KMXO 191135Z AUTO 00000KT 6SM BR OVC070 M06/M06 A3028 RMK AO2
Loading
Personal Weather Stations






























Interactive Weather Map New forecast layout! Learn more

10-Day Weather Forecast

Advertisements
Track Severe Weather on mobile